Gardner, KS

4:18 AM CST on December 04, 2016 (GMT -0600)
Thunderbird Meadows | | Change Station

Elev 1047 ft 38.82 °N, 94.93 °W | Updated 34 seconds ago

Light Rain
Light Rain Mist
38.7 °F
Feels Like 39 °F
N
2.0
Wind Variable Wind from South

Today
High -- | Low -- °F
--% Chance of Precip.
Yesterday
High -- | Low -- °F
Precip. -- in
Pressure 30.04 in
Visibility 5.0 miles
Clouds Overcast 700 ft
Windchill 39 °F
Dew Point 37 °F
Humidity 93%
Rainfall 0.02 in
Snow Depth Not available.
7:22 AM 4:57 PM
Waxing Crescent, 21% visible
METAR KIXD 040953Z AUTO 16008KT 5SM -RA BR OVC007 04/03 A3003 RMK AO2 CIG 005V010 SLP173 P0009 T00390033
Pressure 30.04 in
Visibility 5.0 miles
Clouds Overcast 700 ft
Windchill 39 °F
Dew Point 37 °F
Humidity 93%
Rainfall 0.02 in
Snow Depth Not available.
7:22 AM 4:57 PM
Waxing Crescent, 21% visible
METAR KIXD 040953Z AUTO 16008KT 5SM -RA BR OVC007 04/03 A3003 RMK AO2 CIG 005V010 SLP173 P0009 T00390033

10-Day Weather Forecast

Almanac

Astronomy

Dec. 04, 2016 Rise Set
Actual Time
Civil Twilight
Nautical Twilight
Astronomical Twilight
Moon
Length of Visible Light
Length of Day
Tomorrow will be .
, % of the Moon is Illuminated

Today's Extremes

State Highs State Lows

Community

WunderPhotos

Upload Photos

1,955,591 photos uploaded!

WunderBlog® & News

Nearby

Air Quality

  Air Quality AQ Index Pollutant
Not available.

Snow Depth

Station Depth Elevation

Earthquake Activity

City Distance Mag. Time & Date
Minimum magnitude displayed is 2.5.

Coastal Water Temperatures

Place Temperature

Stations

Nearby Weather Stations

Station Location Temp. Windchill Dew Point Humidity Wind Precip. Elev Updated Type
                   

Watches & Warnings

There are currently no watches in effect.